Airfield :
LOGIN :

Register | Disclaimer

   EN    FR    IT 

 










Legend :    VFR   Marginal VFR   IFR   Intensive IFR   Very Intensive IFR
Visi :
Ceiling :
>= 8 km
>= 3000ft
5 to 8 km
1000 to 3000 ft
1500m to 5 km
500 to 1000 ft
800 to 1500m
200 to 500 ft
< 800m
< 200 ft
Symbols :   Thunderstorms  Fog  Heavy snow  Heavy precipitations  Wind > 20 kt
SIGMETs :     Misc.  Thunderstorms  Icing  Turbulence  Mountain Waves  Volcanic Ashes






- Airport Elevation : 821 ft
- IATA code : LYS


LFLL - Lyon St Exupéry / Satolas

CURRENT METAR :
  • 021230Z 03003KT 340V070 7000 -DZ BKN010 04/03 Q1016 NOSIG

EXPIRED METARs :
  • 021200Z 36004KT 7000 -RADZ BKN009 04/02 Q1017 NOSIG
  • 021130Z 36003KT 9000 -RA BKN010 BKN026 04/02 Q1017 NOSIG
  • 021100Z 34005KT 310V020 9999 BKN010 BKN026 04/02 Q1017 NOSIG
  • 021030Z 35004KT 320V020 9999 BKN010 BKN025 04/02 Q1018 NOSIG
  • 020930Z 34004KT 9999 BKN010 OVC024 04/02 Q1018 NOSIG

TAF AMD TAF LFLL
Valid from the 02 at 12:00 until the 03 at 18:00 UTC


021215Z 0212/0318 35005KT 9999 SCT012 OVC020
PROB40
TEMPO 0212/0215 4500 -RADZ BKN009
TEMPO 0219/0301 4000 -RA BR OVC012
BECMG 0302/0304 2500 BR OVC004
TEMPO 0305/0310 0500 FG VV///
BECMG 0310/0312 9999 NSW OVC007
TEMPO 0313/0317 BKN012



MET'MAP, your aeronautical weather chart ! - Copyright ORBIFLY December 2007 - Disclaimer

ORBIFLY MET'MAP TEAM :

Programming & Development : Alexandra Zaïnal
Original concept : Baudouin d'Aumeries
Technical & hardware support : Manuel Goepfert
Assistance : Marc-Olivier Méhu




SOURCES & CREDITS :

   NOAA